createdAt,value
2018-03-14T00:01:43.312Z,99.90
2018-03-14T00:04:10.915Z,99.90
2018-03-14T00:06:38.523Z,99.90
2018-03-14T00:09:06.107Z,99.90
2018-03-14T00:11:33.810Z,99.90
2018-03-14T00:14:01.423Z,99.90
2018-03-14T00:16:29.022Z,99.90
2018-03-14T00:18:56.595Z,99.90
2018-03-14T00:21:24.181Z,99.90
2018-03-14T00:23:51.770Z,99.90
2018-03-14T00:26:20.403Z,99.90
2018-03-14T00:28:48.752Z,99.90
2018-03-14T00:31:16.341Z,99.90
2018-03-14T00:33:44.715Z,99.90
2018-03-14T00:36:12.300Z,99.90
2018-03-14T00:38:39.932Z,99.90
2018-03-14T00:41:07.510Z,99.90
2018-03-14T00:43:35.146Z,99.90
2018-03-14T00:46:02.719Z,99.90
2018-03-14T00:48:30.277Z,99.90
2018-03-14T00:50:57.896Z,99.90
2018-03-14T00:53:25.484Z,99.90
2018-03-14T00:55:53.073Z,99.90
2018-03-14T00:58:21.448Z,99.90
2018-03-14T01:00:49.810Z,99.90
2018-03-14T01:03:17.402Z,99.90
2018-03-14T01:05:45.004Z,99.90
2018-03-14T01:08:16.459Z,99.90
2018-03-14T01:10:44.043Z,99.90
2018-03-14T01:13:11.660Z,99.90
2018-03-14T01:15:39.252Z,99.90
2018-03-14T01:18:06.844Z,99.90
2018-03-14T01:20:35.381Z,99.90
2018-03-14T01:23:03.800Z,99.90
2018-03-14T01:25:32.155Z,99.90
2018-03-14T01:27:59.774Z,99.90
2018-03-14T01:30:27.346Z,99.90
2018-03-14T01:32:54.918Z,99.90
2018-03-14T01:35:22.526Z,99.90
2018-03-14T01:37:50.885Z,99.90
2018-03-14T01:40:19.269Z,99.90
2018-03-14T01:42:47.632Z,99.90
2018-03-14T01:45:15.221Z,99.90
2018-03-14T01:47:43.583Z,99.90
2018-03-14T01:50:11.158Z,99.90
2018-03-14T01:52:39.544Z,99.90
2018-03-14T01:55:07.128Z,99.90
2018-03-14T01:57:34.709Z,99.90
2018-03-14T02:00:02.322Z,99.90
2018-03-14T02:02:30.663Z,99.90
2018-03-14T02:04:58.251Z,99.90
2018-03-14T02:07:26.596Z,99.90
2018-03-14T02:09:54.222Z,99.90
2018-03-14T02:12:21.810Z,99.90
2018-03-14T02:14:49.412Z,99.90
2018-03-14T02:17:16.977Z,99.90
2018-03-14T02:19:44.565Z,99.90
2018-03-14T02:22:12.129Z,99.90
2018-03-14T02:24:39.732Z,99.90
2018-03-14T02:27:07.310Z,99.90
2018-03-14T02:29:35.681Z,99.90
2018-03-14T02:32:04.030Z,99.90
2018-03-14T02:34:31.620Z,99.90
2018-03-14T02:37:01.821Z,99.90
2018-03-14T02:39:29.397Z,99.90
2018-03-14T02:41:57.784Z,99.90
2018-03-14T02:44:26.130Z,99.90
2018-03-14T02:46:53.727Z,99.90
2018-03-14T02:49:21.304Z,99.90
2018-03-14T02:51:49.650Z,99.90
2018-03-14T02:54:17.232Z,99.90
2018-03-14T02:56:45.565Z,99.90
2018-03-14T02:59:13.152Z,99.90
2018-03-14T03:01:40.752Z,99.90
2018-03-14T03:04:08.324Z,99.90
2018-03-14T03:06:35.898Z,99.90
2018-03-14T03:09:03.585Z,99.90
2018-03-14T03:11:31.158Z,99.90
2018-03-14T03:13:58.722Z,99.90
2018-03-14T03:16:26.346Z,99.90
2018-03-14T03:18:54.631Z,99.90
2018-03-14T03:21:22.207Z,99.90
2018-03-14T03:23:49.803Z,99.90
2018-03-14T03:26:18.139Z,99.90
2018-03-14T03:28:45.711Z,99.90
2018-03-14T03:31:13.273Z,99.90
2018-03-14T03:33:40.934Z,99.90
2018-03-14T03:36:09.305Z,99.90
2018-03-14T03:38:36.895Z,99.90
2018-03-14T03:41:05.254Z,99.90
2018-03-14T03:43:32.808Z,99.90
2018-03-14T03:46:00.386Z,99.90
2018-03-14T03:48:28.704Z,99.90
2018-03-14T03:50:56.289Z,99.90
2018-03-14T03:53:23.845Z,99.90
2018-03-14T03:55:51.437Z,99.90
2018-03-14T03:58:19.010Z,99.90
2018-03-14T04:00:47.339Z,99.90
2018-03-14T04:03:14.925Z,99.90
2018-03-14T04:05:42.490Z,99.90
2018-03-14T04:08:10.047Z,99.90
2018-03-14T04:10:37.636Z,99.90
2018-03-14T04:13:05.222Z,99.90
2018-03-14T04:15:32.810Z,99.90
2018-03-14T04:18:01.357Z,99.90
2018-03-14T04:20:28.957Z,99.90
2018-03-14T04:22:56.511Z,99.90
2018-03-14T04:25:24.135Z,99.90
2018-03-14T04:27:51.708Z,99.90
2018-03-14T04:30:20.195Z,99.90
2018-03-14T04:32:47.751Z,99.90
2018-03-14T04:35:15.306Z,99.90
2018-03-14T04:37:42.892Z,99.90
2018-03-14T04:40:10.488Z,99.90
2018-03-14T04:42:38.843Z,99.90
2018-03-14T04:45:06.401Z,99.90
2018-03-14T04:47:33.980Z,99.90
2018-03-14T04:50:02.310Z,99.90
2018-03-14T04:52:29.873Z,99.90
2018-03-14T04:54:57.451Z,99.90
2018-03-14T04:57:25.020Z,99.90
2018-03-14T04:59:52.603Z,99.90
2018-03-14T05:02:20.986Z,99.90
2018-03-14T05:04:48.538Z,99.90
2018-03-14T05:07:16.087Z,99.90
2018-03-14T05:09:50.965Z,99.90
2018-03-14T05:12:18.549Z,99.90
2018-03-14T05:14:46.135Z,99.90
2018-03-14T05:17:13.695Z,99.90
2018-03-14T05:19:41.266Z,99.90
2018-03-14T05:22:09.615Z,99.90
2018-03-14T05:24:37.193Z,99.90
2018-03-14T05:27:04.789Z,99.90
2018-03-14T05:29:32.359Z,99.90
2018-03-14T05:31:59.972Z,99.90
2018-03-14T05:34:27.541Z,99.90
2018-03-14T05:36:55.876Z,99.90
2018-03-14T05:39:23.461Z,99.90
2018-03-14T05:41:51.040Z,99.90
2018-03-14T05:44:19.371Z,99.90
2018-03-14T05:46:47.976Z,99.90
2018-03-14T05:49:15.582Z,99.90
2018-03-14T05:51:43.939Z,99.90
2018-03-14T05:54:12.276Z,99.90
2018-03-14T05:56:39.901Z,99.90
2018-03-14T05:59:07.476Z,99.90
2018-03-14T06:01:35.065Z,99.90
2018-03-14T06:04:02.635Z,99.90
2018-03-14T06:06:30.218Z,99.90
2018-03-14T06:08:58.570Z,99.90
2018-03-14T06:11:26.136Z,99.90
2018-03-14T06:13:53.730Z,99.90
2018-03-14T06:16:22.115Z,99.90
2018-03-14T06:18:49.707Z,99.90
2018-03-14T06:21:17.299Z,99.90
2018-03-14T06:23:44.848Z,99.90
2018-03-14T06:26:12.454Z,99.90
2018-03-14T06:28:40.042Z,99.90
2018-03-14T06:31:07.664Z,99.90
2018-03-14T06:33:35.990Z,99.90
2018-03-14T06:36:03.555Z,99.90
2018-03-14T06:38:31.129Z,99.90
2018-03-14T06:40:59.475Z,99.90
2018-03-14T06:43:27.892Z,99.90
2018-03-14T06:45:55.479Z,99.90
2018-03-14T06:48:23.795Z,99.90
2018-03-14T06:50:51.371Z,99.90
2018-03-14T06:53:18.941Z,99.90
2018-03-14T06:55:46.586Z,99.90
2018-03-14T06:58:25.973Z,99.90
2018-03-14T07:01:06.052Z,99.90
2018-03-14T07:03:45.412Z,99.90
2018-03-14T07:06:17.279Z,99.90
2018-03-14T07:08:44.835Z,99.90
2018-03-14T07:11:12.387Z,99.90
2018-03-14T07:13:39.996Z,99.90
2018-03-14T07:16:07.556Z,99.90
2018-03-14T07:18:35.140Z,99.90
2018-03-14T07:21:02.759Z,99.90
2018-03-14T07:23:30.319Z,99.90
2018-03-14T07:25:57.898Z,99.90
2018-03-14T07:28:26.274Z,99.50
2018-03-14T07:30:53.851Z,99.50
2018-03-14T07:33:22.211Z,99.10
2018-03-14T07:35:49.810Z,99.10
2018-03-14T07:38:17.386Z,99.40
2018-03-14T07:40:44.941Z,99.50
2018-03-14T07:43:12.542Z,99.20
2018-03-14T07:45:40.880Z,99.10
2018-03-14T07:48:08.482Z,99.20
2018-03-14T07:50:36.051Z,99.20
2018-03-14T07:53:03.602Z,99.40
2018-03-14T07:55:31.206Z,99.10
2018-03-14T07:57:59.565Z,98.90
2018-03-14T08:00:27.914Z,98.60
2018-03-14T08:02:55.509Z,98.60
2018-03-14T08:05:23.096Z,98.50
2018-03-14T08:07:50.646Z,98.20
2018-03-14T08:10:18.241Z,97.80
2018-03-14T08:12:45.816Z,98.40
2018-03-14T08:15:13.391Z,97.70
2018-03-14T08:17:41.764Z,96.90
2018-03-14T08:20:09.346Z,96.80
2018-03-14T08:22:36.935Z,96.50
2018-03-14T08:25:04.515Z,96.40
2018-03-14T08:27:32.106Z,96.30
2018-03-14T08:30:00.452Z,95.30
2018-03-14T08:32:28.029Z,95.30
2018-03-14T08:34:55.621Z,95.20
2018-03-14T08:37:23.974Z,93.90
2018-03-14T08:39:51.548Z,93.90
2018-03-14T08:42:19.902Z,93.30
2018-03-14T08:44:47.479Z,93.30
2018-03-14T08:47:15.837Z,93.50
2018-03-14T08:49:44.052Z,93.50
2018-03-14T08:52:12.388Z,92.80
2018-03-14T08:54:39.950Z,92.80
2018-03-14T08:57:08.334Z,91.70
2018-03-14T08:59:35.901Z,91.70
2018-03-14T09:02:03.512Z,91.60
2018-03-14T09:04:31.080Z,90.60
2018-03-14T09:06:58.647Z,89.30
2018-03-14T09:09:26.269Z,86.40
2018-03-14T09:11:53.844Z,85.40
2018-03-14T09:14:21.397Z,84.00
2018-03-14T09:16:48.980Z,84.50
2018-03-14T09:19:16.560Z,84.30
2018-03-14T09:21:44.171Z,83.50
2018-03-14T09:24:11.770Z,82.90
2018-03-14T09:26:39.375Z,83.70
2018-03-14T09:29:07.690Z,81.30
2018-03-14T09:31:35.248Z,80.60
2018-03-14T09:34:03.762Z,79.00
2018-03-14T09:36:31.338Z,79.00
2018-03-14T09:38:58.919Z,80.30
2018-03-14T09:41:27.237Z,80.30
2018-03-14T09:43:54.826Z,80.60
2018-03-14T09:46:22.538Z,79.10
2018-03-14T09:48:50.172Z,76.90
2018-03-14T09:51:18.503Z,75.30
2018-03-14T09:53:46.082Z,75.30
2018-03-14T09:56:13.659Z,72.10
2018-03-14T09:58:41.239Z,73.00
2018-03-14T10:01:08.849Z,71.50
2018-03-14T10:03:36.403Z,68.70
2018-03-14T10:06:04.003Z,68.90
2018-03-14T10:08:32.344Z,67.60
2018-03-14T10:10:59.920Z,67.40
2018-03-14T10:13:27.494Z,65.40
2018-03-14T10:15:55.061Z,64.30
2018-03-14T10:18:22.668Z,64.70
2018-03-14T10:20:50.254Z,62.10
2018-03-14T10:23:17.853Z,61.20
2018-03-14T10:25:46.291Z,59.60
2018-03-14T10:28:13.882Z,60.90
2018-03-14T10:30:41.463Z,61.50
2018-03-14T10:33:09.044Z,59.80
2018-03-14T10:35:36.651Z,59.50
2018-03-14T10:38:04.225Z,59.00
2018-03-14T10:40:31.802Z,58.70
2018-03-14T10:43:01.179Z,57.00
2018-03-14T10:45:28.755Z,57.00
2018-03-14T10:47:57.114Z,57.10
2018-03-14T10:50:24.688Z,57.10
2018-03-14T10:52:52.249Z,57.10
2018-03-14T10:55:20.617Z,58.20
2018-03-14T10:57:48.189Z,58.20
2018-03-14T11:00:22.224Z,58.30
2018-03-14T11:05:56.476Z,58.00
2018-03-14T11:08:24.050Z,58.40
2018-03-14T11:10:51.645Z,57.20
2018-03-14T11:13:19.245Z,56.50
2018-03-14T11:15:50.308Z,56.40
2018-03-14T11:18:17.926Z,55.90
2018-03-14T11:20:46.309Z,56.90
2018-03-14T11:23:14.634Z,56.80
2018-03-14T11:25:42.231Z,56.80
2018-03-14T11:28:09.796Z,55.90
2018-03-14T11:30:38.139Z,56.50
2018-03-14T11:33:07.723Z,56.40
2018-03-14T11:35:35.307Z,56.70
2018-03-14T11:38:02.876Z,56.40
2018-03-14T11:40:30.470Z,55.40
2018-03-14T11:42:58.796Z,55.80
2018-03-14T11:45:27.135Z,55.70
2018-03-14T11:47:54.759Z,55.90
2018-03-14T11:50:23.302Z,54.70
2018-03-14T11:52:50.890Z,54.30
2018-03-14T11:55:18.491Z,53.30
2018-03-14T11:57:46.823Z,54.20
2018-03-14T12:00:14.391Z,54.20
2018-03-14T12:02:41.975Z,54.00
2018-03-14T12:05:10.344Z,53.70
2018-03-14T12:07:37.918Z,53.50
2018-03-14T12:10:06.324Z,52.50
2018-03-14T12:12:34.627Z,53.10
2018-03-14T12:15:02.232Z,53.00
2018-03-14T12:17:30.575Z,51.60
2018-03-14T12:19:58.137Z,51.50
2018-03-14T12:22:31.612Z,52.00
2018-03-14T12:24:59.179Z,52.10
2018-03-14T12:27:28.810Z,51.70
2018-03-14T12:29:56.437Z,51.80
2018-03-14T12:32:24.004Z,51.50
2018-03-14T12:34:51.608Z,51.90
2018-03-14T12:37:19.198Z,51.70
2018-03-14T12:39:46.758Z,52.10
2018-03-14T12:42:14.380Z,51.40
2018-03-14T12:44:41.996Z,51.20
2018-03-14T12:47:09.549Z,50.70
2018-03-14T12:49:37.119Z,50.30
2018-03-14T12:52:04.717Z,49.90
2018-03-14T12:54:32.275Z,50.70
2018-03-14T12:56:59.847Z,50.50
2018-03-14T12:59:27.444Z,51.00
2018-03-14T13:01:55.124Z,50.30
2018-03-14T13:04:22.720Z,50.40
2018-03-14T13:06:50.317Z,49.20
2018-03-14T13:09:18.671Z,49.00
2018-03-14T13:11:47.074Z,48.50
2018-03-14T13:14:14.668Z,48.10
2018-03-14T13:16:42.248Z,48.40
2018-03-14T13:19:09.854Z,48.90
2018-03-14T13:21:37.501Z,49.50
2018-03-14T13:24:05.974Z,48.70
2018-03-14T13:26:33.603Z,48.70
2018-03-14T13:29:01.203Z,49.60
2018-03-14T13:31:29.529Z,48.70
2018-03-14T13:33:57.147Z,48.60
2018-03-14T13:36:25.481Z,48.70
2018-03-14T13:38:53.056Z,48.70
2018-03-14T13:41:20.648Z,48.50
2018-03-14T13:43:48.990Z,48.30
2018-03-14T13:46:16.580Z,48.20
2018-03-14T13:48:44.927Z,48.50
2018-03-14T13:51:12.506Z,48.50
2018-03-14T13:53:40.097Z,49.40
2018-03-14T13:56:07.713Z,49.40
2018-03-14T13:58:35.332Z,48.60
2018-03-14T14:01:02.896Z,49.80
2018-03-14T14:03:30.490Z,50.60
2018-03-14T14:05:58.096Z,51.00
2018-03-14T14:08:25.690Z,50.40
2018-03-14T14:10:53.277Z,50.80
2018-03-14T14:13:20.872Z,51.40
2018-03-14T14:15:48.478Z,51.40
2018-03-14T14:18:16.062Z,51.80
2018-03-14T14:20:43.634Z,52.80
2018-03-14T14:23:12.666Z,51.60
2018-03-14T14:25:40.247Z,51.60
2018-03-14T14:28:07.826Z,51.30
2018-03-14T14:30:35.400Z,51.40
2018-03-14T14:33:03.980Z,51.40
2018-03-14T14:35:31.564Z,51.50
2018-03-14T14:37:59.904Z,51.50
2018-03-14T14:40:27.484Z,51.50
2018-03-14T14:42:55.066Z,51.60
2018-03-14T14:45:23.429Z,51.00
2018-03-14T14:47:51.764Z,51.70
2018-03-14T14:50:20.187Z,51.70
2018-03-14T14:52:47.747Z,51.50
2018-03-14T14:55:16.116Z,50.50
2018-03-14T14:57:43.711Z,50.40
2018-03-14T15:00:12.042Z,49.60
2018-03-14T15:02:39.656Z,51.00
2018-03-14T15:05:07.206Z,50.70
2018-03-14T15:07:34.769Z,51.10
2018-03-14T15:10:02.362Z,50.60
2018-03-14T15:12:29.951Z,49.90
2018-03-14T15:14:57.514Z,50.70
2018-03-14T15:17:26.670Z,49.50
2018-03-14T15:19:54.273Z,49.50
2018-03-14T15:22:21.832Z,49.30
2018-03-14T15:24:50.191Z,49.40
2018-03-14T15:27:17.755Z,49.30
2018-03-14T15:29:45.319Z,48.90
2018-03-14T15:32:12.903Z,48.70
2018-03-14T15:34:47.794Z,51.80
2018-03-14T15:37:15.365Z,51.80
2018-03-14T15:39:45.297Z,51.80
2018-03-14T15:42:13.126Z,51.80
2018-03-14T15:44:40.715Z,51.80
2018-03-14T15:47:08.284Z,51.60
2018-03-14T15:49:48.279Z,52.40
2018-03-14T15:52:27.088Z,51.90
2018-03-14T15:55:02.861Z,52.10
2018-03-14T15:57:30.524Z,51.80
2018-03-14T15:59:58.092Z,52.10
2018-03-14T16:02:25.693Z,52.60
2018-03-14T16:05:03.755Z,52.90
2018-03-14T16:07:33.311Z,52.80
2018-03-14T16:10:08.601Z,52.70
2018-03-14T16:12:44.866Z,52.70
2018-03-14T16:15:12.438Z,53.00
2018-03-14T16:17:40.111Z,52.80
2018-03-14T16:20:09.727Z,52.50
2018-03-14T16:22:40.449Z,52.70
2018-03-14T16:25:08.065Z,53.10
2018-03-14T16:27:35.646Z,53.00
2018-03-14T16:30:03.269Z,53.40
2018-03-14T16:32:31.638Z,53.40
2018-03-14T16:35:00.012Z,53.30
2018-03-14T16:37:27.584Z,53.70
2018-03-14T16:39:55.926Z,53.30
2018-03-14T16:42:27.198Z,53.30
2018-03-14T16:45:09.116Z,53.90
2018-03-14T16:47:40.624Z,54.00
2018-03-14T16:50:08.994Z,53.70
2018-03-14T16:52:44.071Z,54.30
2018-03-14T16:55:12.424Z,54.20
2018-03-14T16:57:40.024Z,54.30
2018-03-14T17:00:07.592Z,54.80
2018-03-14T17:02:35.180Z,55.10
2018-03-14T17:05:02.751Z,55.70
2018-03-14T17:07:30.372Z,56.00
2018-03-14T17:09:57.937Z,56.20
2018-03-14T17:12:25.496Z,56.70
2018-03-14T17:14:53.106Z,56.70
2018-03-14T17:17:20.680Z,57.00
2018-03-14T17:19:58.838Z,58.80
2018-03-14T17:22:31.932Z,58.70
2018-03-14T17:25:07.368Z,59.30
2018-03-14T17:27:34.945Z,59.90
2018-03-14T17:30:03.344Z,60.90
2018-03-14T17:32:30.928Z,60.80
2018-03-14T17:34:59.256Z,62.00
2018-03-14T17:37:26.843Z,62.00
2018-03-14T17:39:54.459Z,62.70
2018-03-14T17:42:22.091Z,63.20
2018-03-14T17:44:50.410Z,67.20
2018-03-14T17:47:17.964Z,67.10
2018-03-14T17:49:45.544Z,68.40
2018-03-14T17:52:13.103Z,69.10
2018-03-14T17:54:40.682Z,69.60
2018-03-14T17:57:09.825Z,71.00
2018-03-14T17:59:38.301Z,71.00
2018-03-14T18:02:05.917Z,74.10
2018-03-14T18:04:33.491Z,73.40
2018-03-14T18:07:02.030Z,74.90
2018-03-14T18:09:29.638Z,75.00
2018-03-14T18:12:03.649Z,75.50
2018-03-14T18:14:32.005Z,75.60
2018-03-14T18:16:59.606Z,75.60
2018-03-14T18:19:34.154Z,76.20
2018-03-14T18:22:01.716Z,76.40
2018-03-14T18:24:34.006Z,78.00
2018-03-14T18:27:01.601Z,78.70
2018-03-14T18:29:29.920Z,79.80
2018-03-14T18:31:57.521Z,79.80
2018-03-14T18:34:27.086Z,80.30
2018-03-14T18:36:54.700Z,81.00
2018-03-14T18:39:22.330Z,81.30
2018-03-14T18:41:50.702Z,82.40
2018-03-14T18:44:18.321Z,82.40
2018-03-14T18:46:46.673Z,82.90
2018-03-14T18:49:18.489Z,82.90
2018-03-14T18:51:46.093Z,83.10
2018-03-14T18:54:13.693Z,83.80
2018-03-14T18:56:41.873Z,84.30
2018-03-14T18:59:09.453Z,84.00
2018-03-14T19:01:37.088Z,84.40
2018-03-14T19:04:07.979Z,85.10
2018-03-14T19:06:35.530Z,85.60
2018-03-14T19:09:03.140Z,86.20
2018-03-14T19:11:30.734Z,86.80
2018-03-14T19:13:58.298Z,87.10
2018-03-14T19:16:25.883Z,88.20
2018-03-14T19:18:59.415Z,89.20
2018-03-14T19:21:31.453Z,89.90
2018-03-14T19:23:59.007Z,89.90
2018-03-14T19:26:26.606Z,90.30
2018-03-14T19:29:00.313Z,90.40
2018-03-14T19:31:27.899Z,90.60
2018-03-14T19:33:55.472Z,90.70
2018-03-14T19:36:28.825Z,90.90
2018-03-14T19:38:56.400Z,90.90
2018-03-14T19:41:23.992Z,91.00
2018-03-14T19:43:51.555Z,91.30
2018-03-14T19:46:19.914Z,91.80
2018-03-14T19:48:47.485Z,91.80
2018-03-14T19:51:15.106Z,91.90
2018-03-14T19:53:42.676Z,92.10
2018-03-14T19:56:10.244Z,92.20
2018-03-14T19:58:37.844Z,92.30
2018-03-14T20:01:05.497Z,92.30
2018-03-14T20:03:33.083Z,92.60
2018-03-14T20:06:07.132Z,92.70
2018-03-14T20:08:34.727Z,92.70
2018-03-14T20:11:02.320Z,93.20
2018-03-14T20:13:30.644Z,93.40
2018-03-14T20:15:58.219Z,93.40
2018-03-14T20:18:25.814Z,93.40
2018-03-14T20:20:54.227Z,93.60
2018-03-14T20:23:36.219Z,93.60
2018-03-14T20:26:03.779Z,93.70
2018-03-14T20:28:33.306Z,93.90
2018-03-14T20:31:00.924Z,94.20
2018-03-14T20:33:28.513Z,94.30
2018-03-14T20:35:56.101Z,94.40
2018-03-14T20:38:24.662Z,94.70
2018-03-14T20:40:52.221Z,95.00
2018-03-14T20:43:20.736Z,95.20
2018-03-14T20:45:48.314Z,95.40
2018-03-14T20:48:15.911Z,95.60
2018-03-14T20:50:43.519Z,95.50
2018-03-14T20:53:12.077Z,95.40
2018-03-14T20:55:39.692Z,95.40
2018-03-14T20:58:09.022Z,95.80
2018-03-14T21:00:36.604Z,95.80
2018-03-14T21:03:04.199Z,96.00
2018-03-14T21:05:31.798Z,96.00
2018-03-14T21:07:59.356Z,96.10
2018-03-14T21:10:26.980Z,96.20
2018-03-14T21:12:54.552Z,96.20
2018-03-14T21:15:22.885Z,96.50
2018-03-14T21:17:50.553Z,96.50
2018-03-14T21:20:18.134Z,96.70
2018-03-14T21:22:45.750Z,96.80
2018-03-14T21:25:13.384Z,96.80
2018-03-14T21:27:41.718Z,97.10
2018-03-14T21:30:09.328Z,97.10
2018-03-14T21:32:36.901Z,97.10
2018-03-14T21:35:04.470Z,97.20
2018-03-14T21:37:32.101Z,97.20
2018-03-14T21:39:59.669Z,97.20
2018-03-14T21:42:27.239Z,97.20
2018-03-14T21:44:54.852Z,97.30
2018-03-14T21:47:22.418Z,97.40
2018-03-14T21:49:52.041Z,97.60
2018-03-14T21:52:20.369Z,97.70
2018-03-14T21:54:48.659Z,97.70
2018-03-14T21:57:18.293Z,97.70
2018-03-14T21:59:46.644Z,97.90
2018-03-14T22:02:14.204Z,97.90
2018-03-14T22:04:42.606Z,97.90
2018-03-14T22:07:10.191Z,97.90
2018-03-14T22:09:37.753Z,98.20
2018-03-14T22:12:05.374Z,98.20
2018-03-14T22:14:32.960Z,98.40
2018-03-14T22:17:01.333Z,98.40
2018-03-14T22:19:29.675Z,98.40
2018-03-14T22:21:57.259Z,98.40
2018-03-14T22:24:24.859Z,98.30
2018-03-14T22:26:58.168Z,98.50
2018-03-14T22:29:25.820Z,98.10
2018-03-14T22:31:53.385Z,98.30
2018-03-14T22:34:20.960Z,98.30
2018-03-14T22:36:48.580Z,98.30
2018-03-14T22:39:16.961Z,98.20
2018-03-14T22:41:45.277Z,98.20
2018-03-14T22:44:16.700Z,98.20
2018-03-14T22:46:44.274Z,98.20
2018-03-14T22:49:11.838Z,98.10
2018-03-14T22:51:39.430Z,98.40
2018-03-14T22:54:06.991Z,98.20
2018-03-14T22:56:34.620Z,98.30
2018-03-14T22:59:02.219Z,98.50
2018-03-14T23:01:30.549Z,98.40
2018-03-14T23:03:58.161Z,98.40
2018-03-14T23:06:25.722Z,98.50
2018-03-14T23:08:54.062Z,98.60
2018-03-14T23:11:21.651Z,98.60
2018-03-14T23:13:49.218Z,98.50
2018-03-14T23:16:16.786Z,98.50
2018-03-14T23:18:44.378Z,98.70
2018-03-14T23:21:11.959Z,98.70
2018-03-14T23:23:39.575Z,98.80
2018-03-14T23:26:07.214Z,99.00
2018-03-14T23:28:38.421Z,99.20
2018-03-14T23:31:06.014Z,99.40
2018-03-14T23:33:33.580Z,99.50
2018-03-14T23:36:01.170Z,99.70
2018-03-14T23:38:29.532Z,99.80
2018-03-14T23:41:05.221Z,99.90
2018-03-14T23:43:32.787Z,99.90
2018-03-14T23:46:00.360Z,99.90
2018-03-14T23:48:27.967Z,99.90
2018-03-14T23:50:56.451Z,99.90
2018-03-14T23:53:24.786Z,99.90
2018-03-14T23:55:57.067Z,99.90
2018-03-14T23:58:24.676Z,99.90
